Time;durP1;ratioP1;P1;durP2;ratioP2;P2;SDS_P1;SDS_P2;PMS_P1;PMS_P2;Temp;Humidity;BMP_temperature;BMP_pressure;BME280_temperature;BME280_humidity;BME280_pressure;Samples;Min_cycle;Max_cycle;Signal;HPM_P1;HPM_P2
2023/04/03 00:00:36;;;;;;;1.20;0.60;;;;;10.00;102840.00;;;;5008883;28;20225;-77
2023/04/03 00:03:04;;;;;;;1.48;0.77;;;;;10.00;102845.00;;;;5010913;28;20205;-77
2023/04/03 00:05:31;;;;;;;1.55;0.85;;;;;10.00;102849.00;;;;5010275;28;20233;-77
2023/04/03 00:08:00;;;;;;;1.10;0.77;;;;;9.90;102851.00;;;;5008990;28;20213;-77
2023/04/03 00:10:28;;;;;;;1.83;0.73;;;;;9.90;102843.00;;;;5010896;28;20280;-77
2023/04/03 00:12:56;;;;;;;2.50;0.70;;;;;9.90;102840.00;;;;5010455;28;20202;-77
2023/04/03 00:15:24;;;;;;;1.60;0.90;;;;;9.90;102842.00;;;;5010506;28;20209;-77
2023/04/03 00:17:51;;;;;;;1.35;0.60;;;;;9.80;102847.00;;;;5007208;28;20573;-77
2023/04/03 00:20:19;;;;;;;2.08;1.05;;;;;9.80;102847.00;;;;5008865;28;20200;-77
2023/04/03 00:22:46;;;;;;;1.85;0.88;;;;;9.80;102850.00;;;;5009729;28;20267;-77
2023/04/03 00:25:14;;;;;;;1.30;0.70;;;;;9.80;102848.00;;;;4995100;28;20193;-77
2023/04/03 00:27:41;;;;;;;1.95;0.60;;;;;9.70;102861.00;;;;5010182;28;20209;-77
2023/04/03 00:30:14;;;;;;;1.30;0.75;;;;;9.70;102853.00;;;;5008448;28;20208;-77
2023/04/03 00:32:41;;;;;;;1.83;0.75;;;;;9.70;102851.00;;;;5009907;28;20201;-77
2023/04/03 00:35:09;;;;;;;2.03;0.63;;;;;9.70;102852.00;;;;5008035;28;20212;-77
2023/04/03 00:37:37;;;;;;;2.85;0.60;;;;;9.60;102861.00;;;;5009199;28;20209;-77
2023/04/03 00:40:06;;;;;;;1.45;0.73;;;;;9.60;102857.00;;;;5008701;28;20197;-77
2023/04/03 00:42:33;;;;;;;1.25;0.63;;;;;9.60;102861.00;;;;5005833;28;20196;-77
2023/04/03 00:45:26;;;;;;;0.98;0.70;;;;;9.50;102852.00;;;;5010268;28;20709;-77
2023/04/03 00:47:54;;;;;;;0.85;0.68;;;;;9.50;102857.00;;;;5008644;28;21097;-77
2023/04/03 00:50:21;;;;;;;1.20;0.75;;;;;9.50;102855.00;;;;5008527;28;20211;-77
2023/04/03 00:52:49;;;;;;;1.45;0.80;;;;;9.50;102859.00;;;;5008943;28;20570;-77
2023/04/03 00:55:17;;;;;;;1.75;0.73;;;;;9.50;102860.00;;;;5006464;28;21193;-78
2023/04/03 00:57:45;;;;;;;1.73;0.93;;;;;9.50;102867.00;;;;5006482;28;20891;-77
2023/04/03 01:00:17;;;;;;;2.10;0.95;;;;;9.40;102865.00;;;;5007711;28;20236;-78
2023/04/03 01:02:45;;;;;;;1.40;0.93;;;;;9.40;102863.00;;;;5008874;28;21062;-77
2023/04/03 01:05:14;;;;;;;2.38;1.00;;;;;9.40;102863.00;;;;5004949;28;20229;-78
2023/04/03 01:07:43;;;;;;;1.25;0.55;;;;;9.40;102862.00;;;;5004521;28;20224;-78
2023/04/03 01:10:14;;;;;;;1.98;1.08;;;;;9.40;102865.00;;;;5007858;28;20201;-77
2023/04/03 01:12:43;;;;;;;1.75;0.95;;;;;9.40;102860.00;;;;5004954;28;20275;-77
2023/04/03 01:15:13;;;;;;;0.85;0.57;;;;;9.30;102869.00;;;;5005981;28;20201;-77
2023/04/03 01:17:42;;;;;;;1.75;0.95;;;;;9.30;102870.00;;;;5008247;28;20212;-77
2023/04/03 01:20:52;;;;;;;0.95;0.75;;;;;9.20;102864.00;;;;5008782;28;20237;-78
2023/04/03 01:23:39;;;;;;;1.00;0.55;;;;;9.20;102865.00;;;;5007022;28;20244;-78
2023/04/03 01:26:06;;;;;;;2.15;0.80;;;;;9.30;102866.00;;;;5006290;28;20201;-78
2023/04/03 01:28:36;;;;;;;1.00;0.60;;;;;9.20;102867.00;;;;5008330;28;20205;-77
2023/04/03 01:31:13;;;;;;;1.92;1.30;;;;;9.20;102871.00;;;;5006042;28;20208;-77
2023/04/03 01:33:41;;;;;;;1.48;1.00;;;;;9.20;102871.00;;;;5001736;28;20232;-78
2023/04/03 01:36:16;;;;;;;1.75;0.82;;;;;9.10;102864.00;;;;5006938;28;20208;-78
2023/04/03 01:38:43;;;;;;;1.92;0.75;;;;;9.20;102869.00;;;;5008709;28;20239;-77
2023/04/03 01:41:11;;;;;;;1.27;0.90;;;;;9.20;102863.00;;;;5006887;28;20201;-78
2023/04/03 01:43:38;;;;;;;1.50;1.00;;;;;9.20;102859.00;;;;5007574;28;20201;-78
2023/04/03 01:46:05;;;;;;;3.33;1.15;;;;;9.10;102863.00;;;;5005416;28;20197;-78
2023/04/03 01:48:33;;;;;;;1.45;1.02;;;;;9.10;102858.00;;;;5008051;28;20243;-77
2023/04/03 01:51:01;;;;;;;2.00;1.08;;;;;9.10;102859.00;;;;5007253;28;20205;-77
2023/04/03 01:53:29;;;;;;;1.75;0.63;;;;;9.10;102869.00;;;;5007338;28;20209;-77
2023/04/03 01:55:56;;;;;;;0.80;0.60;;;;;9.10;102861.00;;;;5006089;28;20212;-77
2023/04/03 01:58:24;;;;;;;1.65;0.90;;;;;9.10;102867.00;;;;5007886;28;20689;-78
2023/04/03 02:00:53;;;;;;;1.50;1.00;;;;;9.10;102876.00;;;;5003189;28;20244;-77
2023/04/03 02:03:20;;;;;;;1.75;1.05;;;;;9.10;102874.00;;;;5008557;28;20251;-78
2023/04/03 02:05:48;;;;;;;1.70;0.77;;;;;9.10;102876.00;;;;5004494;28;20679;-78
2023/04/03 02:08:18;;;;;;;1.48;0.82;;;;;9.10;102883.00;;;;4989322;28;20229;-77
2023/04/03 02:10:47;;;;;;;2.88;0.80;;;;;9.10;102882.00;;;;4995922;28;20248;-78
2023/04/03 02:13:15;;;;;;;1.20;0.80;;;;;9.10;102880.00;;;;5007817;28;20205;-78
2023/04/03 02:15:42;;;;;;;2.47;1.10;;;;;9.10;102886.00;;;;5007308;28;20275;-78
2023/04/03 02:18:10;;;;;;;1.20;0.80;;;;;9.10;102886.00;;;;5006197;28;20205;-78
2023/04/03 02:20:37;;;;;;;1.85;0.80;;;;;9.00;102887.00;;;;5007124;28;20211;-78
2023/04/03 02:23:05;;;;;;;2.67;0.88;;;;;9.00;102895.00;;;;5004584;28;20193;-78
2023/04/03 02:25:34;;;;;;;0.93;0.70;;;;;9.00;102890.00;;;;5007221;28;20200;-77
2023/04/03 02:28:01;;;;;;;2.42;1.10;;;;;9.00;102886.00;;;;5006719;28;20248;-78
2023/04/03 02:30:29;;;;;;;1.35;0.88;;;;;9.00;102896.00;;;;5008449;28;20199;-77
2023/04/03 02:32:56;;;;;;;2.67;1.45;;;;;9.00;102888.00;;;;5008662;28;20267;-77
2023/04/03 02:35:23;;;;;;;2.40;1.05;;;;;9.00;102899.00;;;;5007844;28;20203;-77
2023/04/03 02:37:51;;;;;;;1.40;0.75;;;;;9.00;102886.00;;;;5008298;28;20939;-78
2023/04/03 02:40:18;;;;;;;1.60;0.80;;;;;9.00;102888.00;;;;5002358;28;20201;-78
2023/04/03 02:42:47;;;;;;;2.00;0.95;;;;;8.90;102887.00;;;;4988283;28;20213;-78
2023/04/03 02:45:14;;;;;;;1.42;0.90;;;;;9.00;102888.00;;;;4996982;28;20209;-78
2023/04/03 02:47:42;;;;;;;2.40;1.25;;;;;9.00;102899.00;;;;5008448;28;20323;-77
2023/04/03 02:50:10;;;;;;;1.25;0.70;;;;;8.90;102886.00;;;;5008955;28;20215;-77
2023/04/03 02:52:37;;;;;;;2.42;1.00;;;;;8.90;102889.00;;;;5008073;28;20209;-78
2023/04/03 02:55:05;;;;;;;2.00;0.85;;;;;8.90;102897.00;;;;5006740;28;20201;-78
2023/04/03 02:57:32;;;;;;;1.75;0.80;;;;;8.90;102907.00;;;;4999882;28;20742;-78
2023/04/03 03:00:01;;;;;;;2.22;1.20;;;;;8.90;102909.00;;;;5002801;28;20225;-78
2023/04/03 03:02:28;;;;;;;3.25;0.90;;;;;8.90;102910.00;;;;5008196;28;20205;-78
2023/04/03 03:04:55;;;;;;;1.95;1.02;;;;;8.90;102908.00;;;;5006840;28;21088;-77
2023/04/03 03:07:23;;;;;;;1.60;0.70;;;;;8.90;102908.00;;;;5008319;28;20233;-78
2023/04/03 03:09:50;;;;;;;1.35;0.63;;;;;8.90;102914.00;;;;5006726;28;20201;-77
2023/04/03 03:12:21;;;;;;;1.95;1.00;;;;;8.90;102920.00;;;;5008646;28;20201;-77
2023/04/03 03:14:48;;;;;;;1.27;0.63;;;;;8.90;102922.00;;;;5000221;28;20252;-77
2023/04/03 03:17:17;;;;;;;1.25;0.80;;;;;8.80;102914.00;;;;5009410;28;20698;-78
2023/04/03 03:19:45;;;;;;;1.58;0.80;;;;;8.80;102913.00;;;;5011337;28;20251;-77
2023/04/03 03:22:12;;;;;;;1.00;0.70;;;;;8.80;102917.00;;;;5011362;28;20205;-77
2023/04/03 03:24:40;;;;;;;0.95;0.60;;;;;8.80;102920.00;;;;5008407;28;20193;-77
2023/04/03 03:27:07;;;;;;;2.33;0.77;;;;;8.80;102914.00;;;;5010463;28;20221;-78
2023/04/03 03:29:34;;;;;;;1.85;0.77;;;;;8.80;102927.00;;;;5008125;28;20200;-77
2023/04/03 03:32:02;;;;;;;1.23;0.75;;;;;8.80;102921.00;;;;4998653;28;20208;-77
2023/04/03 03:34:31;;;;;;;1.65;0.90;;;;;8.70;102924.00;;;;5008858;28;20204;-77
2023/04/03 03:36:59;;;;;;;2.85;0.90;;;;;8.80;102932.00;;;;5005575;28;20201;-77
2023/04/03 03:39:26;;;;;;;1.33;0.93;;;;;8.80;102924.00;;;;5010102;28;20216;-78
2023/04/03 03:41:54;;;;;;;1.45;0.85;;;;;8.70;102929.00;;;;5009826;28;20211;-77
2023/04/03 03:44:21;;;;;;;2.72;1.20;;;;;8.70;102927.00;;;;5011216;28;20228;-78
2023/04/03 03:46:49;;;;;;;1.05;0.77;;;;;8.70;102929.00;;;;5009489;28;20693;-78
2023/04/03 03:49:16;;;;;;;2.05;0.80;;;;;8.70;102920.00;;;;5002612;28;20204;-77
2023/04/03 03:51:45;;;;;;;1.45;0.88;;;;;8.70;102923.00;;;;5010327;28;20205;-77
2023/04/03 03:54:12;;;;;;;1.92;0.80;;;;;8.70;102929.00;;;;5010777;28;20236;-77
2023/04/03 03:56:40;;;;;;;2.38;1.15;;;;;8.70;102930.00;;;;5010186;28;20204;-77
2023/04/03 03:59:07;;;;;;;2.28;0.90;;;;;8.70;102926.00;;;;5009731;28;20579;-78
2023/04/03 04:01:35;;;;;;;2.05;1.00;;;;;8.70;102930.00;;;;5010408;28;20208;-78
2023/04/03 04:04:02;;;;;;;2.42;0.95;;;;;8.70;102931.00;;;;5010405;28;20189;-77
2023/04/03 04:06:29;;;;;;;2.30;0.85;;;;;8.60;102935.00;;;;5010171;28;20204;-77
2023/04/03 04:08:58;;;;;;;2.47;1.10;;;;;8.60;102937.00;;;;5006437;28;20224;-77
2023/04/03 04:11:27;;;;;;;1.92;1.05;;;;;8.60;102930.00;;;;5001892;28;20198;-77
2023/04/03 04:13:54;;;;;;;1.50;0.82;;;;;8.60;102936.00;;;;4990531;28;20217;-77
2023/04/03 04:16:22;;;;;;;2.65;1.02;;;;;8.60;102931.00;;;;5008456;28;20216;-78
2023/04/03 04:18:49;;;;;;;1.55;0.88;;;;;8.60;102932.00;;;;5008712;28;20197;-77
2023/04/03 04:21:16;;;;;;;2.35;1.35;;;;;8.60;102941.00;;;;5010703;28;20200;-78
2023/04/03 04:23:43;;;;;;;3.67;1.30;;;;;8.60;102943.00;;;;4991607;28;20212;-77
2023/04/03 04:26:12;;;;;;;3.15;1.50;;;;;8.50;102940.00;;;;5008934;28;20200;-78
2023/04/03 04:28:39;;;;;;;2.53;0.85;;;;;8.50;102941.00;;;;5008592;28;20228;-78
2023/04/03 04:31:07;;;;;;;3.35;0.82;;;;;8.50;102948.00;;;;4999040;28;20208;-78
2023/04/03 04:33:34;;;;;;;1.85;1.02;;;;;8.50;102950.00;;;;5010675;28;20581;-77
2023/04/03 04:36:01;;;;;;;1.70;1.13;;;;;8.50;102943.00;;;;5008782;28;20208;-77
2023/04/03 04:38:29;;;;;;;2.00;0.90;;;;;8.50;102948.00;;;;5006743;28;20204;-78
2023/04/03 04:40:56;;;;;;;1.15;0.90;;;;;8.40;102951.00;;;;5004081;28;20205;-77
2023/04/03 04:43:25;;;;;;;2.28;0.88;;;;;8.40;102950.00;;;;5009331;28;20563;-77
2023/04/03 04:46:02;;;;;;;0.98;0.77;;;;;8.30;102953.00;;;;5009031;28;20258;-78
2023/04/03 04:48:30;;;;;;;2.28;0.82;;;;;8.40;102958.00;;;;5008671;28;20706;-77
2023/04/03 04:50:58;;;;;;;4.38;1.30;;;;;8.40;102962.00;;;;5008946;28;20208;-77
2023/04/03 04:53:25;;;;;;;4.07;1.00;;;;;8.40;102954.00;;;;4999080;28;20208;-77
2023/04/03 04:55:53;;;;;;;2.58;1.33;;;;;8.30;102960.00;;;;5006201;28;20285;-78
2023/04/03 04:58:21;;;;;;;2.47;1.23;;;;;8.30;102959.00;;;;5006902;28;20197;-78
2023/04/03 05:00:49;;;;;;;1.85;0.75;;;;;8.30;102960.00;;;;5005602;28;20229;-78
2023/04/03 05:03:17;;;;;;;2.60;1.40;;;;;8.30;102961.00;;;;5010095;28;20604;-77
2023/04/03 05:05:44;;;;;;;2.10;1.55;;;;;8.20;102967.00;;;;5008147;28;20220;-77
2023/04/03 05:08:12;;;;;;;3.28;1.52;;;;;8.20;102960.00;;;;5008964;28;20220;-77
2023/04/03 05:10:40;;;;;;;4.78;1.45;;;;;8.20;102965.00;;;;5008161;28;20206;-77
2023/04/03 05:13:07;;;;;;;4.72;1.13;;;;;8.20;102963.00;;;;5006566;28;20208;-78
2023/04/03 05:15:35;;;;;;;4.55;1.77;;;;;8.20;102962.00;;;;5006034;28;20201;-77
2023/04/03 05:18:04;;;;;;;5.05;1.40;;;;;8.20;102961.00;;;;5008481;28;20212;-77
2023/04/03 05:20:32;;;;;;;3.22;1.60;;;;;8.20;102969.00;;;;5007433;28;20215;-77
2023/04/03 05:22:59;;;;;;;2.92;1.15;;;;;8.20;102969.00;;;;5009355;28;20212;-78
2023/04/03 05:25:27;;;;;;;3.60;1.10;;;;;8.20;102968.00;;;;5009175;28;20200;-78
2023/04/03 05:27:54;;;;;;;2.45;1.48;;;;;8.20;102970.00;;;;5007824;28;20229;-78
2023/04/03 05:30:22;;;;;;;2.42;1.27;;;;;8.20;102976.00;;;;5001805;28;20205;-78
2023/04/03 05:32:49;;;;;;;1.50;0.80;;;;;8.10;102978.00;;;;5008636;28;20216;-77
2023/04/03 05:35:18;;;;;;;2.10;1.35;;;;;8.10;102982.00;;;;5008247;28;20212;-77
2023/04/03 05:37:45;;;;;;;1.60;0.98;;;;;8.10;102989.00;;;;5005121;28;20208;-77
2023/04/03 05:40:13;;;;;;;1.77;1.00;;;;;8.10;102984.00;;;;5004245;28;20196;-77
2023/04/03 05:42:40;;;;;;;2.30;1.00;;;;;8.10;102978.00;;;;5006558;28;20201;-78
2023/04/03 05:45:08;;;;;;;1.90;1.13;;;;;8.20;102984.00;;;;5007023;28;20832;-78
2023/04/03 05:47:35;;;;;;;2.90;1.05;;;;;8.10;102990.00;;;;5000463;28;20232;-79
2023/04/03 05:50:03;;;;;;;1.02;0.80;;;;;8.20;102993.00;;;;4989950;28;20205;-79
2023/04/03 05:52:34;;;;;;;5.03;1.23;;;;;8.20;102990.00;;;;5006502;28;20208;-79
2023/04/03 05:55:01;;;;;;;1.90;1.27;;;;;8.20;102994.00;;;;5006779;28;20201;-78
2023/04/03 05:57:29;;;;;;;2.25;1.15;;;;;8.20;103000.00;;;;5006001;28;20212;-79
2023/04/03 05:59:56;;;;;;;1.98;0.90;;;;;8.20;103007.00;;;;5003000;28;20235;-79
2023/04/03 06:02:24;;;;;;;1.92;1.02;;;;;8.30;103001.00;;;;5000612;28;20197;-78
2023/04/03 06:04:52;;;;;;;2.47;1.15;;;;;8.30;103000.00;;;;4998676;28;20217;-78
2023/04/03 06:07:22;;;;;;;1.90;0.98;;;;;8.30;103001.00;;;;5007620;28;20197;-78
2023/04/03 06:09:52;;;;;;;3.65;1.45;;;;;8.40;103012.00;;;;5007545;28;20201;-79
2023/04/03 06:12:20;;;;;;;1.98;1.10;;;;;8.40;103013.00;;;;5006015;28;20304;-79
2023/04/03 06:14:47;;;;;;;3.28;1.10;;;;;8.50;103017.00;;;;5005621;28;20626;-78
2023/04/03 06:17:15;;;;;;;1.92;1.20;;;;;8.60;103014.00;;;;5008145;28;20209;-79
2023/04/03 06:19:43;;;;;;;1.75;1.10;;;;;8.60;103018.00;;;;5004569;28;20204;-79
2023/04/03 06:22:11;;;;;;;1.25;1.10;;;;;8.70;103005.00;;;;5002419;28;20219;-79
2023/04/03 06:24:38;;;;;;;1.70;0.90;;;;;8.70;103021.00;;;;5005512;28;20201;-79
2023/04/03 06:27:07;;;;;;;2.03;1.42;;;;;8.80;103024.00;;;;5004984;28;20208;-79
2023/04/03 06:29:34;;;;;;;3.88;1.30;;;;;8.90;103022.00;;;;5006482;28;20224;-80
2023/04/03 06:32:02;;;;;;;5.90;1.50;;;;;9.00;103017.00;;;;5006730;28;20208;-79
2023/04/03 06:34:29;;;;;;;1.60;0.85;;;;;9.00;103022.00;;;;5008433;28;20201;-79
2023/04/03 06:36:56;;;;;;;1.83;0.88;;;;;9.10;103027.00;;;;5004551;28;20209;-80
2023/04/03 06:39:24;;;;;;;1.88;1.30;;;;;9.20;103030.00;;;;5007674;28;20196;-79
2023/04/03 06:41:52;;;;;;;3.50;1.15;;;;;9.20;103029.00;;;;5008150;28;20193;-79
2023/04/03 06:44:20;;;;;;;1.25;0.70;;;;;9.30;103027.00;;;;5007632;28;20205;-79
2023/04/03 06:46:48;;;;;;;2.85;1.25;;;;;9.40;103029.00;;;;5001428;28;20193;-80
2023/04/03 06:49:15;;;;;;;2.67;1.30;;;;;9.40;103046.00;;;;5007689;28;20208;-79
2023/04/03 06:51:43;;;;;;;2.17;1.20;;;;;9.50;103036.00;;;;5005064;28;20675;-79
2023/04/03 06:54:10;;;;;;;4.90;1.73;;;;;9.50;103045.00;;;;5004802;28;20551;-79
2023/04/03 06:56:37;;;;;;;2.22;0.80;;;;;9.60;103043.00;;;;5003578;28;20733;-79
2023/04/03 06:59:05;;;;;;;2.03;1.23;;;;;9.60;103050.00;;;;5005141;28;22024;-79
2023/04/03 07:01:33;;;;;;;2.30;1.00;;;;;9.70;103054.00;;;;5008095;28;20201;-79
2023/04/03 07:04:01;;;;;;;1.73;1.10;;;;;9.70;103061.00;;;;5000082;28;20204;-78
2023/04/03 07:06:28;;;;;;;2.70;1.00;;;;;9.80;103049.00;;;;5006448;28;20205;-79
2023/04/03 07:08:56;;;;;;;1.60;1.10;;;;;9.90;103053.00;;;;5008886;28;20228;-78
2023/04/03 07:11:23;;;;;;;3.88;2.10;;;;;9.90;103054.00;;;;5009943;28;20201;-79
2023/04/03 07:13:52;;;;;;;3.10;1.20;;;;;10.00;103064.00;;;;4996272;28;20223;-79
2023/04/03 07:16:19;;;;;;;2.10;1.13;;;;;10.00;103056.00;;;;5002043;28;20209;-79
2023/04/03 07:18:48;;;;;;;2.40;1.10;;;;;10.10;103069.00;;;;5009620;28;20197;-79
2023/04/03 07:21:15;;;;;;;4.88;1.50;;;;;10.10;103061.00;;;;5006471;28;20208;-79
2023/04/03 07:23:43;;;;;;;2.47;1.30;;;;;10.20;103073.00;;;;4998731;28;20209;-79
2023/04/03 07:26:10;;;;;;;1.90;1.30;;;;;10.30;103076.00;;;;5012261;28;20216;-79
2023/04/03 07:28:39;;;;;;;2.00;1.05;;;;;10.30;103066.00;;;;5002687;28;20221;-79
2023/04/03 07:31:10;;;;;;;2.22;1.23;;;;;10.40;103075.00;;;;5010468;28;20283;-79
2023/04/03 07:33:38;;;;;;;1.60;1.17;;;;;10.40;103074.00;;;;5000851;28;20192;-79
2023/04/03 07:36:08;;;;;;;3.15;0.85;;;;;10.50;103074.00;;;;5008629;28;20710;-80
2023/04/03 07:38:36;;;;;;;2.15;1.33;;;;;10.60;103067.00;;;;5010489;28;20211;-79
2023/04/03 07:41:05;;;;;;;2.92;1.20;;;;;10.60;103075.00;;;;5010870;28;20227;-79
2023/04/03 07:43:34;;;;;;;1.58;1.02;;;;;10.70;103074.00;;;;5007945;28;20208;-78
2023/04/03 07:46:02;;;;;;;2.50;1.10;;;;;10.80;103079.00;;;;5004236;28;20260;-78
2023/04/03 07:48:29;;;;;;;2.17;1.20;;;;;10.80;103068.00;;;;4999889;28;20733;-78
2023/04/03 07:51:01;;;;;;;1.88;1.05;;;;;10.80;103079.00;;;;5010198;28;20194;-78
2023/04/03 07:53:30;;;;;;;3.20;1.05;;;;;11.00;103068.00;;;;5011389;28;20300;-78
2023/04/03 07:55:58;;;;;;;1.75;1.20;;;;;11.00;103069.00;;;;5009936;28;20616;-78
2023/04/03 07:58:26;;;;;;;3.92;1.48;;;;;11.10;103083.00;;;;5010589;28;20216;-78
2023/04/03 08:00:53;;;;;;;2.15;1.33;;;;;11.20;103079.00;;;;5008483;28;20236;-78
2023/04/03 08:03:21;;;;;;;1.13;0.63;;;;;11.30;103080.00;;;;5003648;28;20193;-80
2023/04/03 08:05:50;;;;;;;6.78;1.08;;;;;11.30;103085.00;;;;5000052;28;20702;-79
2023/04/03 08:08:19;;;;;;;2.92;1.17;;;;;11.40;103075.00;;;;5010749;28;20200;-79
2023/04/03 08:10:51;;;;;;;3.10;1.20;;;;;11.40;103090.00;;;;5008895;28;20201;-80
2023/04/03 08:13:19;;;;;;;2.70;0.70;;;;;11.50;103075.00;;;;5011018;28;20216;-80
2023/04/03 08:15:47;;;;;;;1.83;0.95;;;;;11.50;103080.00;;;;5010466;28;20658;-80
2023/04/03 08:18:15;;;;;;;2.47;0.73;;;;;11.60;103090.00;;;;5010299;28;20201;-79
2023/04/03 08:20:42;;;;;;;2.35;0.80;;;;;11.60;103091.00;;;;5009155;28;20693;-79
2023/04/03 08:23:10;;;;;;;2.45;0.85;;;;;11.70;103099.00;;;;5009864;28;21014;-79
2023/04/03 08:25:40;;;;;;;2.03;0.70;;;;;11.70;103093.00;;;;5008121;28;20651;-80
2023/04/03 08:28:09;;;;;;;2.63;1.00;;;;;11.80;103102.00;;;;5004638;28;20729;-79
2023/04/03 08:30:37;;;;;;;4.25;0.90;;;;;11.90;103098.00;;;;5007467;28;20207;-79
2023/04/03 08:33:05;;;;;;;2.13;0.80;;;;;11.90;103101.00;;;;5007021;28;20209;-79
2023/04/03 08:35:33;;;;;;;2.78;0.50;;;;;11.90;103100.00;;;;5006219;28;20703;-79
2023/04/03 08:38:00;;;;;;;1.15;0.55;;;;;12.00;103108.00;;;;5004725;28;20208;-79
2023/04/03 08:40:28;;;;;;;1.20;0.60;;;;;12.00;103112.00;;;;5005477;28;20718;-79
2023/04/03 08:43:05;;;;;;;1.02;0.60;;;;;12.00;103121.00;;;;5008999;28;20201;-80
2023/04/03 08:45:45;;;;;;;1.75;0.70;;;;;12.10;103123.00;;;;5009122;28;20208;-79
2023/04/03 08:48:16;;;;;;;1.25;0.57;;;;;12.20;103115.00;;;;5009034;28;20201;-79
2023/04/03 08:50:47;;;;;;;0.65;0.40;;;;;12.30;103120.00;;;;5009526;28;20207;-79
2023/04/03 08:53:17;;;;;;;1.35;0.52;;;;;12.40;103121.00;;;;5001794;28;20259;-79
2023/04/03 08:55:46;;;;;;;1.13;0.50;;;;;12.40;103121.00;;;;4999685;28;20208;-79
2023/04/03 08:58:17;;;;;;;1.48;0.60;;;;;12.50;103106.00;;;;5007494;28;20694;-79
2023/04/03 09:00:50;;;;;;;2.83;0.52;;;;;12.60;103111.00;;;;4997238;28;20221;-79
2023/04/03 09:03:20;;;;;;;0.73;0.32;;;;;12.70;103102.00;;;;5007571;28;20193;-79
2023/04/03 09:05:52;;;;;;;1.50;0.43;;;;;12.70;103105.00;;;;5008501;28;20209;-79
2023/04/03 09:08:29;;;;;;;3.88;0.80;;;;;12.80;103109.00;;;;5008216;28;20255;-80
2023/04/03 09:11:07;;;;;;;1.50;0.38;;;;;12.90;103102.00;;;;5005560;28;20207;-80
2023/04/03 09:13:40;;;;;;;1.10;0.25;;;;;13.00;103103.00;;;;5003636;28;20204;-80
2023/04/03 09:16:21;;;;;;;2.13;0.30;;;;;13.00;103105.00;;;;5008107;28;20201;-79
2023/04/03 09:18:59;;;;;;;1.10;0.40;;;;;13.10;103108.00;;;;5007995;28;20219;-80
2023/04/03 09:21:32;;;;;;;1.75;0.43;;;;;13.20;103111.00;;;;5006121;28;20197;-79
2023/04/03 09:24:02;;;;;;;1.55;0.30;;;;;13.30;103112.00;;;;5006455;28;20208;-80
2023/04/03 09:26:35;;;;;;;1.20;0.30;;;;;13.30;103106.00;;;;5009443;28;20207;-80
2023/04/03 09:29:06;;;;;;;0.77;0.50;;;;;13.50;103109.00;;;;4996545;28;20229;-79
2023/04/03 09:31:40;;;;;;;1.10;0.22;;;;;13.50;103106.00;;;;5007979;28;20200;-80
2023/04/03 09:34:21;;;;;;;0.50;0.30;;;;;13.60;103106.00;;;;5007756;28;20203;-79
2023/04/03 09:36:51;;;;;;;0.40;0.17;;;;;13.70;103107.00;;;;5004929;28;20247;-79
2023/04/03 09:39:20;;;;;;;2.05;0.47;;;;;13.80;103110.00;;;;5007461;28;20196;-80
2023/04/03 09:41:59;;;;;;;0.55;0.20;;;;;13.80;103100.00;;;;5004977;28;20204;-80
2023/04/03 09:44:28;;;;;;;1.75;0.50;;;;;14.00;103098.00;;;;5006498;28;20201;-81
2023/04/03 09:47:00;;;;;;;0.85;0.32;;;;;14.00;103086.00;;;;5003927;28;20218;-80
2023/04/03 09:49:27;;;;;;;0.98;0.25;;;;;14.10;103089.00;;;;5007054;28;20220;-80
2023/04/03 09:51:55;;;;;;;0.60;0.22;;;;;14.10;103096.00;;;;5007441;28;20204;-81
2023/04/03 09:54:40;;;;;;;0.52;0.28;;;;;14.20;103100.00;;;;5005940;28;20200;-80
2023/04/03 09:57:11;;;;;;;1.42;0.50;;;;;14.20;103091.00;;;;5007625;28;20193;-80
2023/04/03 09:59:43;;;;;;;1.00;0.50;;;;;14.30;103086.00;;;;5005703;28;20231;-80
2023/04/03 10:02:31;;;;;;;0.95;0.40;;;;;14.30;103079.00;;;;5003091;28;20201;-80
2023/04/03 10:04:59;;;;;;;0.85;0.20;;;;;14.40;103070.00;;;;5001610;28;20240;-80
2023/04/03 10:07:33;;;;;;;0.55;0.22;;;;;14.40;103074.00;;;;5005854;28;20197;-81
2023/04/03 10:10:03;;;;;;;0.50;0.20;;;;;14.50;103074.00;;;;5005501;28;20238;-80
2023/04/03 10:12:31;;;;;;;1.20;0.15;;;;;14.60;103074.00;;;;5004809;28;20686;-82
2023/04/03 10:15:00;;;;;;;0.80;0.30;;;;;14.70;103063.00;;;;5005895;28;20375;-82
2023/04/03 10:17:57;;;;;;;0.60;0.20;;;;;14.60;103065.00;;;;5002374;28;20196;-81
2023/04/03 10:20:38;;;;;;;0.60;0.20;;;;;14.80;103058.00;;;;5006640;28;20213;-81
2023/04/03 10:23:20;;;;;;;0.70;0.20;;;;;14.80;103056.00;;;;5004453;28;20685;-80
2023/04/03 10:25:56;;;;;;;2.05;0.40;;;;;14.90;103065.00;;;;4993632;28;20236;-79
2023/04/03 10:28:31;;;;;;;1.08;0.43;;;;;15.00;103053.00;;;;5009727;28;20575;-80
2023/04/03 10:31:07;;;;;;;0.50;0.20;;;;;15.00;103053.00;;;;5011577;28;20239;-80
2023/04/03 10:33:47;;;;;;;0.85;0.40;;;;;15.00;103045.00;;;;5010677;28;20211;-79
2023/04/03 10:36:25;;;;;;;0.73;0.17;;;;;15.10;103047.00;;;;5006166;28;20201;-81
2023/04/03 10:39:03;;;;;;;0.52;0.22;;;;;15.20;103045.00;;;;5008747;28;20211;-80
2023/04/03 10:41:38;;;;;;;0.85;0.00;;;;;15.30;103042.00;;;;5011420;28;20741;-80
2023/04/03 10:44:15;;;;;;;0.60;0.20;;;;;15.30;103027.00;;;;5011206;28;20765;-80
2023/04/03 10:46:47;;;;;;;0.40;0.10;;;;;15.40;103028.00;;;;5009002;28;20193;-80
2023/04/03 10:49:27;;;;;;;0.38;0.20;;;;;15.40;103025.00;;;;5010757;28;22368;-79
2023/04/03 10:52:04;;;;;;;0.70;0.20;;;;;15.40;103009.00;;;;5008481;28;20208;-79
2023/04/03 10:54:37;;;;;;;0.57;0.13;;;;;15.50;103014.00;;;;5007048;28;20239;-80
2023/04/03 10:57:06;;;;;;;2.83;0.22;;;;;15.60;103017.00;;;;5010855;28;20201;-81
2023/04/03 10:59:37;;;;;;;1.02;0.22;;;;;15.60;103013.00;;;;5011026;28;20240;-80
2023/04/03 11:02:09;;;;;;;1.98;0.20;;;;;15.70;103027.00;;;;5011684;28;20205;-78
2023/04/03 11:04:43;;;;;;;1.02;0.22;;;;;15.70;103035.00;;;;5008455;28;20224;-79
2023/04/03 11:07:17;;;;;;;0.50;0.40;;;;;15.80;103024.00;;;;5010004;28;20201;-78
2023/04/03 11:09:49;;;;;;;0.52;0.30;;;;;15.90;103027.00;;;;5001868;28;20309;-80
2023/04/03 11:12:27;;;;;;;0.55;0.10;;;;;15.90;103026.00;;;;5009396;28;20189;-80
2023/04/03 11:14:57;;;;;;;0.30;0.10;;;;;16.00;103026.00;;;;5008091;28;20576;-80
2023/04/03 11:17:32;;;;;;;2.60;0.22;;;;;16.00;103016.00;;;;5009186;28;20280;-81
2023/04/03 11:20:09;;;;;;;0.45;0.30;;;;;16.10;103028.00;;;;5011449;28;20197;-79
2023/04/03 11:22:41;;;;;;;0.65;0.35;;;;;16.10;103015.00;;;;5008583;28;20199;-79
2023/04/03 11:25:19;;;;;;;1.35;0.50;;;;;16.10;103022.00;;;;5009481;28;20208;-79
2023/04/03 11:27:51;;;;;;;1.10;0.68;;;;;16.10;103026.00;;;;5007282;28;20205;-80
2023/04/03 11:30:23;;;;;;;0.75;0.45;;;;;16.20;103020.00;;;;5011162;28;20694;-79
2023/04/03 11:33:04;;;;;;;0.30;0.17;;;;;16.10;103017.00;;;;5010174;28;20197;-79
2023/04/03 11:35:34;;;;;;;1.38;0.52;;;;;16.20;103011.00;;;;5009756;28;20667;-79
2023/04/03 11:38:05;;;;;;;0.82;0.47;;;;;16.30;103021.00;;;;5009814;28;20211;-80
2023/04/03 11:40:35;;;;;;;1.20;0.30;;;;;16.30;103017.00;;;;5010950;28;20578;-79
2023/04/03 11:43:08;;;;;;;1.92;0.50;;;;;16.30;103009.00;;;;5009568;28;20200;-79
2023/04/03 11:45:50;;;;;;;2.10;0.40;;;;;16.30;103006.00;;;;4999296;28;20569;-80
2023/04/03 11:48:50;;;;;;;0.70;0.32;;;;;16.20;103013.00;;;;5008958;28;20204;-79
2023/04/03 11:51:45;;;;;;;0.70;0.45;;;;;16.20;103011.00;;;;5010623;28;20229;-78
2023/04/03 11:54:47;;;;;;;2.45;0.35;;;;;16.20;103004.00;;;;5007493;28;20201;-77
2023/04/03 11:57:46;;;;;;;1.83;0.40;;;;;16.20;103009.00;;;;5009756;28;20197;-79
2023/04/03 12:00:54;;;;;;;0.50;0.40;;;;;16.30;103012.00;;;;5006735;28;20221;-77
2023/04/03 12:04:05;;;;;;;0.85;0.40;;;;;16.30;103009.00;;;;5005278;28;20200;-78
2023/04/03 12:07:01;;;;;;;0.73;0.32;;;;;16.30;102985.00;;;;5009435;28;20197;-79
2023/04/03 12:09:35;;;;;;;1.20;0.43;;;;;16.50;102981.00;;;;5008858;28;20670;-78
2023/04/03 12:12:30;;;;;;;0.68;0.30;;;;;16.40;102973.00;;;;5009728;28;20678;-79
2023/04/03 12:15:19;;;;;;;0.60;0.35;;;;;16.40;102984.00;;;;5002793;28;20280;-79
2023/04/03 12:17:46;;;;;;;1.45;0.30;;;;;16.60;102971.00;;;;5008080;28;20278;-79
2023/04/03 12:20:53;;;;;;;1.45;0.40;;;;;16.60;102968.00;;;;5006797;28;20328;-79
2023/04/03 12:23:38;;;;;;;0.90;0.30;;;;;16.60;102977.00;;;;5004408;28;20188;-79
2023/04/03 12:26:21;;;;;;;2.50;0.60;;;;;16.80;102964.00;;;;5008316;28;20689;-78
2023/04/03 12:28:52;;;;;;;0.82;0.40;;;;;16.80;102969.00;;;;5009624;28;20561;-79
2023/04/03 12:31:21;;;;;;;1.33;0.40;;;;;16.90;102945.00;;;;5007355;28;20705;-79